createdAt,value
2022-09-22T00:01:18.812Z,2.35
2022-09-22T00:03:51.438Z,4.03
2022-09-22T00:06:40.110Z,1.77
2022-09-22T00:09:11.187Z,1.77
2022-09-22T00:11:41.227Z,1.98
2022-09-22T00:14:17.086Z,3.10
2022-09-22T00:16:54.872Z,3.30
2022-09-22T00:19:34.202Z,3.85
2022-09-22T00:22:01.229Z,1.98
2022-09-22T00:24:28.907Z,5.57
2022-09-22T00:26:57.863Z,2.47
2022-09-22T00:29:26.105Z,2.90
2022-09-22T00:31:53.119Z,2.12
2022-09-22T00:34:22.104Z,3.12
2022-09-22T00:36:49.987Z,3.92
2022-09-22T00:39:17.968Z,2.10
2022-09-22T00:41:52.196Z,2.25
2022-09-22T00:44:36.208Z,3.30
2022-09-22T00:47:23.784Z,3.67
2022-09-22T00:49:59.534Z,4.50
2022-09-22T00:52:32.415Z,3.08
2022-09-22T00:55:02.935Z,4.47
2022-09-22T00:57:34.013Z,3.45
2022-09-22T01:00:02.752Z,3.45
2022-09-22T01:02:29.554Z,4.62
2022-09-22T01:04:57.589Z,3.22
2022-09-22T01:07:28.649Z,3.17
2022-09-22T01:09:56.248Z,3.03
2022-09-22T01:12:24.452Z,8.38
2022-09-22T01:15:00.262Z,2.80
2022-09-22T01:17:50.729Z,2.50
2022-09-22T01:20:52.872Z,2.50
2022-09-22T01:23:53.541Z,3.28
2022-09-22T01:26:43.639Z,2.30
2022-09-22T01:29:23.691Z,2.58
2022-09-22T01:32:14.709Z,4.37
2022-09-22T01:35:07.212Z,2.75
2022-09-22T01:37:42.929Z,8.15
2022-09-22T01:40:15.938Z,2.37
2022-09-22T01:42:51.909Z,2.67
2022-09-22T01:45:26.340Z,4.78
2022-09-22T01:48:06.809Z,6.47
2022-09-22T01:50:49.576Z,5.15
2022-09-22T01:53:22.632Z,2.80
2022-09-22T01:55:55.438Z,5.47
2022-09-22T01:58:28.452Z,6.53
2022-09-22T02:01:00.846Z,3.62
2022-09-22T02:03:38.904Z,6.12
2022-09-22T02:06:13.861Z,3.55
2022-09-22T02:09:08.802Z,4.20
2022-09-22T02:11:36.030Z,3.25
2022-09-22T02:14:04.665Z,3.92
2022-09-22T02:16:32.239Z,3.05
2022-09-22T02:19:23.190Z,4.10
2022-09-22T02:21:50.551Z,3.42
2022-09-22T02:24:30.102Z,7.85
2022-09-22T02:27:07.090Z,2.90
2022-09-22T02:29:39.759Z,3.28
2022-09-22T02:32:11.460Z,3.10
2022-09-22T02:34:38.690Z,4.37
2022-09-22T02:37:39.791Z,2.97
2022-09-22T02:40:47.119Z,3.55
2022-09-22T02:44:01.553Z,3.55
2022-09-22T02:46:37.607Z,2.97
2022-09-22T02:49:09.125Z,4.12
2022-09-22T02:51:36.592Z,4.10
2022-09-22T02:54:03.637Z,3.10
2022-09-22T02:56:30.531Z,4.65
2022-09-22T02:58:58.599Z,3.95
2022-09-22T03:01:26.243Z,4.50
2022-09-22T03:03:55.101Z,5.68
2022-09-22T03:06:21.773Z,4.00
2022-09-22T03:08:48.540Z,8.10
2022-09-22T03:11:15.250Z,4.50
2022-09-22T03:13:42.011Z,6.50
2022-09-22T03:16:09.384Z,4.78
2022-09-22T03:18:36.314Z,4.45
2022-09-22T03:21:03.270Z,4.12
2022-09-22T03:23:30.056Z,5.57
2022-09-22T03:25:56.832Z,6.07
2022-09-22T03:28:23.590Z,6.70
2022-09-22T03:30:50.375Z,4.00
2022-09-22T03:33:17.210Z,5.20
2022-09-22T03:35:43.950Z,4.45
2022-09-22T03:38:11.289Z,6.18
2022-09-22T03:40:38.059Z,4.70
2022-09-22T03:43:04.867Z,9.68
2022-09-22T03:45:31.637Z,4.85
2022-09-22T03:47:59.149Z,6.30
2022-09-22T03:50:26.297Z,4.68
2022-09-22T03:52:53.127Z,6.62
2022-09-22T03:55:19.839Z,5.22
2022-09-22T03:57:47.122Z,8.05
2022-09-22T04:00:14.393Z,5.20
2022-09-22T04:02:41.684Z,6.15
2022-09-22T04:05:09.102Z,5.60
2022-09-22T04:07:35.904Z,4.43
2022-09-22T04:10:03.734Z,5.50
2022-09-22T04:12:30.774Z,5.00
2022-09-22T04:14:57.503Z,5.37
2022-09-22T04:17:24.320Z,5.75
2022-09-22T04:19:51.092Z,7.75
2022-09-22T04:22:17.843Z,7.18
2022-09-22T04:24:45.012Z,4.35
2022-09-22T04:27:20.691Z,4.87
2022-09-22T04:29:48.218Z,5.72
2022-09-22T04:32:15.362Z,7.35
2022-09-22T04:34:43.012Z,6.03
2022-09-22T04:37:10.622Z,7.10
2022-09-22T04:39:37.470Z,9.63
2022-09-22T04:42:04.572Z,7.85
2022-09-22T04:44:34.952Z,5.75
2022-09-22T04:47:02.538Z,9.95
2022-09-22T04:49:29.260Z,5.22
2022-09-22T04:51:56.063Z,9.30
2022-09-22T04:54:22.811Z,6.78
2022-09-22T04:56:49.866Z,6.30
2022-09-22T04:59:16.673Z,6.10
2022-09-22T05:01:43.498Z,4.57
2022-09-22T05:04:10.307Z,7.37
2022-09-22T05:06:37.016Z,5.22
2022-09-22T05:09:03.887Z,10.15
2022-09-22T05:11:31.166Z,7.22
2022-09-22T05:13:58.841Z,6.30
2022-09-22T05:16:26.694Z,6.90
2022-09-22T05:18:53.692Z,6.15
2022-09-22T05:21:20.516Z,6.30
2022-09-22T05:23:47.585Z,7.10
2022-09-22T05:26:14.483Z,7.68
2022-09-22T05:28:41.335Z,6.15
2022-09-22T05:31:08.439Z,4.30
2022-09-22T05:33:35.289Z,4.30
2022-09-22T05:36:02.955Z,5.35
2022-09-22T05:38:29.686Z,4.30
2022-09-22T05:40:56.537Z,4.45
2022-09-22T05:43:23.247Z,5.37
2022-09-22T05:45:50.282Z,9.50
2022-09-22T05:48:17.279Z,4.60
2022-09-22T05:50:45.446Z,4.90
2022-09-22T05:53:12.711Z,5.87
2022-09-22T05:55:40.785Z,3.83
2022-09-22T05:58:12.012Z,3.35
2022-09-22T06:00:40.231Z,6.62
2022-09-22T06:03:08.145Z,3.67
2022-09-22T06:05:37.674Z,6.80
2022-09-22T06:08:06.674Z,7.80
2022-09-22T06:10:38.359Z,4.80
2022-09-22T06:13:10.537Z,2.90
2022-09-22T06:15:39.442Z,3.35
2022-09-22T06:18:13.215Z,6.80
2022-09-22T06:20:42.979Z,3.28
2022-09-22T06:23:10.073Z,3.75
2022-09-22T06:25:36.918Z,5.82
2022-09-22T06:28:07.096Z,4.25
2022-09-22T06:30:36.410Z,3.37
2022-09-22T06:33:03.851Z,5.25
2022-09-22T06:35:36.846Z,3.97
2022-09-22T06:38:08.134Z,4.25
2022-09-22T06:40:39.316Z,5.45
2022-09-22T06:43:12.191Z,3.83
2022-09-22T06:45:45.013Z,4.55
2022-09-22T06:48:11.948Z,5.20
2022-09-22T06:50:41.344Z,7.87
2022-09-22T06:53:14.045Z,3.95
2022-09-22T06:55:44.234Z,3.25
2022-09-22T06:58:13.078Z,4.87
2022-09-22T07:00:43.790Z,5.33
2022-09-22T07:03:15.721Z,4.20
2022-09-22T07:05:43.833Z,4.43
2022-09-22T07:08:10.636Z,4.82
2022-09-22T07:10:38.279Z,4.05
2022-09-22T07:13:06.318Z,3.37
2022-09-22T07:15:46.921Z,3.80
2022-09-22T07:18:15.319Z,4.90
2022-09-22T07:20:45.443Z,3.92
2022-09-22T07:23:19.259Z,2.75
2022-09-22T07:25:54.298Z,4.18
2022-09-22T07:28:21.807Z,7.65
2022-09-22T07:30:48.862Z,26.85
2022-09-22T07:33:17.718Z,15.00
2022-09-22T07:35:44.817Z,5.53
2022-09-22T07:38:11.731Z,8.88
2022-09-22T07:40:38.571Z,7.15
2022-09-22T07:43:05.505Z,3.12
2022-09-22T07:45:32.336Z,9.63
2022-09-22T07:48:18.058Z,6.85
2022-09-22T07:50:54.275Z,4.15
2022-09-22T07:53:21.177Z,7.05
2022-09-22T07:55:48.625Z,3.17
2022-09-22T07:58:17.353Z,2.72
2022-09-22T08:00:44.642Z,3.33
2022-09-22T08:03:11.517Z,3.40
2022-09-22T08:05:39.711Z,5.53
2022-09-22T08:08:08.293Z,3.25
2022-09-22T08:10:35.748Z,4.75
2022-09-22T08:13:04.627Z,3.70
2022-09-22T08:15:31.516Z,4.93
2022-09-22T08:17:58.818Z,5.47
2022-09-22T08:20:29.250Z,3.78
2022-09-22T08:23:01.613Z,4.07
2022-09-22T08:25:28.997Z,2.58
2022-09-22T08:27:55.833Z,2.80
2022-09-22T08:30:22.757Z,6.68
2022-09-22T08:32:49.626Z,3.30
2022-09-22T08:35:18.729Z,3.35
2022-09-22T08:37:45.915Z,5.00
2022-09-22T08:40:23.977Z,2.30
2022-09-22T08:42:55.774Z,3.10
2022-09-22T08:45:35.449Z,3.15
2022-09-22T08:51:16.578Z,2.35
2022-09-22T08:53:48.901Z,2.95
2022-09-22T08:56:21.726Z,2.85
2022-09-22T08:59:03.495Z,2.85
2022-09-22T09:01:51.793Z,2.85
2022-09-22T09:04:37.572Z,2.42
2022-09-22T09:07:44.065Z,3.03
2022-09-22T09:10:49.057Z,4.00
2022-09-22T09:13:42.345Z,3.30
2022-09-22T09:16:27.386Z,4.12
2022-09-22T09:19:25.554Z,2.70
2022-09-22T09:21:56.852Z,2.67
2022-09-22T09:27:37.223Z,2.67
2022-09-22T09:30:18.180Z,4.53
2022-09-22T09:33:01.673Z,2.65
2022-09-22T09:35:50.851Z,3.00
2022-09-22T09:38:31.887Z,2.17
2022-09-22T09:41:16.193Z,3.05
2022-09-22T09:43:43.940Z,2.40
2022-09-22T09:46:33.339Z,2.92
2022-09-22T09:49:16.260Z,2.83
2022-09-22T09:51:46.631Z,2.42
2022-09-22T09:54:17.518Z,4.93
2022-09-22T09:57:19.500Z,2.42
2022-09-22T10:00:07.022Z,2.50
2022-09-22T10:02:37.867Z,2.30
2022-09-22T10:05:07.926Z,5.82
2022-09-22T10:08:05.389Z,2.40
2022-09-22T10:10:34.146Z,3.42
2022-09-22T10:13:03.975Z,2.23
2022-09-22T10:15:36.838Z,1.98
2022-09-22T10:18:30.231Z,2.45
2022-09-22T10:21:16.007Z,2.22
2022-09-22T10:23:45.184Z,2.12
2022-09-22T10:26:32.757Z,1.80
2022-09-22T10:29:20.044Z,1.70
2022-09-22T10:32:13.702Z,4.12
2022-09-22T10:34:50.789Z,2.75
2022-09-22T10:37:25.631Z,2.95
2022-09-22T10:39:54.396Z,2.75
2022-09-22T10:42:45.752Z,4.53
2022-09-22T10:45:19.528Z,2.75
2022-09-22T10:48:00.506Z,2.55
2022-09-22T10:50:41.542Z,3.33
2022-09-22T10:53:33.423Z,4.37
2022-09-22T10:56:38.181Z,2.90
2022-09-22T10:59:10.882Z,4.47
2022-09-22T11:01:50.474Z,3.42
2022-09-22T11:04:36.023Z,1.67
2022-09-22T11:07:29.305Z,3.60
2022-09-22T11:10:40.762Z,3.20
2022-09-22T11:13:22.885Z,1.92
2022-09-22T11:16:17.999Z,4.40
2022-09-22T11:19:22.182Z,2.95
2022-09-22T11:21:58.645Z,1.65
2022-09-22T11:24:28.434Z,3.55
2022-09-22T11:26:58.996Z,1.60
2022-09-22T11:29:58.979Z,1.25
2022-09-22T11:32:37.872Z,2.45
2022-09-22T11:35:23.140Z,1.80
2022-09-22T11:38:20.322Z,2.00
2022-09-22T11:40:59.935Z,1.60
2022-09-22T11:46:27.985Z,1.85
2022-09-22T11:49:18.029Z,1.98
2022-09-22T11:52:02.150Z,1.45
2022-09-22T11:54:49.706Z,2.58
2022-09-22T11:57:21.991Z,2.92
2022-09-22T11:59:57.552Z,1.58
2022-09-22T12:02:36.094Z,2.12
2022-09-22T12:05:10.183Z,1.60
2022-09-22T12:07:47.260Z,2.62
2022-09-22T12:10:23.135Z,2.35
2022-09-22T12:12:51.985Z,4.62
2022-09-22T12:16:00.573Z,2.10
2022-09-22T12:18:54.606Z,1.43
2022-09-22T12:21:43.301Z,1.95
2022-09-22T12:24:12.385Z,3.40
2022-09-22T12:26:45.297Z,3.95
2022-09-22T12:29:15.505Z,3.75
2022-09-22T12:31:45.074Z,2.42
2022-09-22T12:37:09.712Z,2.67
2022-09-22T12:39:44.973Z,6.10
2022-09-22T12:42:37.805Z,1.98
2022-09-22T12:45:29.611Z,1.92
2022-09-22T12:47:58.270Z,2.40
2022-09-22T12:50:24.992Z,1.60
2022-09-22T12:52:51.840Z,2.55
2022-09-22T12:55:42.153Z,4.55
2022-09-22T12:58:22.515Z,1.60
2022-09-22T13:00:51.140Z,1.75
2022-09-22T13:03:27.243Z,2.85
2022-09-22T13:06:05.110Z,2.85
2022-09-22T13:08:31.802Z,2.75
2022-09-22T13:10:59.902Z,2.30
2022-09-22T13:13:29.704Z,1.85
2022-09-22T13:16:16.570Z,2.75
2022-09-22T13:18:46.340Z,1.90
2022-09-22T13:21:13.144Z,2.37
2022-09-22T13:23:52.027Z,2.08
2022-09-22T13:26:32.547Z,2.92
2022-09-22T13:29:01.273Z,3.75
2022-09-22T13:31:29.267Z,3.03
2022-09-22T13:33:56.222Z,2.40
2022-09-22T13:36:25.520Z,1.98
2022-09-22T13:38:56.460Z,11.52
2022-09-22T13:41:36.174Z,1.27
2022-09-22T13:44:10.661Z,3.00
2022-09-22T13:46:43.770Z,3.47
2022-09-22T13:49:25.450Z,1.62
2022-09-22T13:52:01.662Z,1.92
2022-09-22T13:54:35.513Z,1.67
2022-09-22T13:57:08.005Z,2.53
2022-09-22T13:59:41.366Z,2.95
2022-09-22T14:02:11.791Z,1.60
2022-09-22T14:04:49.602Z,3.20
2022-09-22T14:07:17.754Z,3.30
2022-09-22T14:09:45.174Z,2.10
2022-09-22T14:12:12.204Z,1.90
2022-09-22T14:14:40.391Z,1.98
2022-09-22T14:17:16.180Z,1.75
2022-09-22T14:20:05.184Z,3.33
2022-09-22T14:22:34.723Z,2.62
2022-09-22T14:25:06.841Z,1.92
2022-09-22T14:27:41.459Z,2.30
2022-09-22T14:30:18.601Z,1.25
2022-09-22T14:32:56.256Z,1.85
2022-09-22T14:35:36.497Z,2.37
2022-09-22T14:40:58.839Z,2.80
2022-09-22T14:43:37.206Z,2.05
2022-09-22T14:46:23.331Z,2.00
2022-09-22T14:48:50.889Z,4.15
2022-09-22T14:51:23.185Z,6.03
2022-09-22T14:53:57.856Z,5.70
2022-09-22T14:56:34.015Z,1.87
2022-09-22T14:59:26.464Z,2.90
2022-09-22T15:02:14.101Z,2.55
2022-09-22T15:04:47.255Z,2.42
2022-09-22T15:07:34.725Z,2.42
2022-09-22T15:10:05.737Z,3.53
2022-09-22T15:12:45.033Z,3.55
2022-09-22T15:15:26.199Z,3.33
2022-09-22T15:18:16.528Z,2.58
2022-09-22T15:20:44.182Z,2.15
2022-09-22T15:23:18.656Z,3.40
2022-09-22T15:25:46.566Z,3.20
2022-09-22T15:28:19.562Z,2.62
2022-09-22T15:30:48.533Z,2.60
2022-09-22T15:33:16.505Z,5.35
2022-09-22T15:35:45.963Z,3.08
2022-09-22T15:38:17.560Z,4.32
2022-09-22T15:40:45.529Z,3.45
2022-09-22T15:43:14.187Z,3.25
2022-09-22T15:45:48.144Z,3.70
2022-09-22T15:48:40.117Z,5.15
2022-09-22T15:51:14.261Z,4.78
2022-09-22T15:53:41.854Z,4.05
2022-09-22T15:56:19.328Z,6.62
2022-09-22T15:58:46.809Z,3.30
2022-09-22T16:01:17.750Z,2.75
2022-09-22T16:03:45.544Z,2.58
2022-09-22T16:06:15.329Z,3.85
2022-09-22T16:08:48.290Z,1.85
2022-09-22T16:11:18.891Z,2.05
2022-09-22T16:13:45.708Z,3.95
2022-09-22T16:16:12.818Z,3.15
2022-09-22T16:18:42.108Z,4.12
2022-09-22T16:21:29.541Z,6.90
2022-09-22T16:24:01.762Z,6.60
2022-09-22T16:26:32.671Z,9.55
2022-09-22T16:28:59.686Z,11.10
2022-09-22T16:31:27.399Z,9.93
2022-09-22T16:34:00.838Z,7.53
2022-09-22T16:36:36.922Z,6.72
2022-09-22T16:39:04.816Z,8.75
2022-09-22T16:41:33.843Z,8.15
2022-09-22T16:44:01.847Z,8.02
2022-09-22T16:46:30.754Z,5.20
2022-09-22T16:49:06.316Z,6.40
2022-09-22T16:51:38.846Z,6.85
2022-09-22T16:54:07.854Z,7.68
2022-09-22T16:56:37.942Z,9.27
2022-09-22T16:59:05.166Z,8.52
2022-09-22T17:01:36.552Z,6.80
2022-09-22T17:04:08.001Z,8.23
2022-09-22T17:06:36.243Z,5.00
2022-09-22T17:09:03.676Z,4.10
2022-09-22T17:11:34.676Z,4.28
2022-09-22T17:14:06.214Z,6.10
2022-09-22T17:16:49.942Z,6.97
2022-09-22T17:19:19.718Z,8.00
2022-09-22T17:21:48.634Z,7.47
2022-09-22T17:24:16.306Z,10.87
2022-09-22T17:26:47.563Z,10.98
2022-09-22T17:29:21.144Z,13.10
2022-09-22T17:31:48.267Z,11.30
2022-09-22T17:34:16.004Z,8.15
2022-09-22T17:36:42.814Z,11.15
2022-09-22T17:39:10.784Z,7.35
2022-09-22T17:41:47.200Z,8.10
2022-09-22T17:44:21.439Z,8.32
2022-09-22T17:47:08.714Z,8.90
2022-09-22T17:49:54.754Z,8.20
2022-09-22T17:52:33.811Z,15.52
2022-09-22T17:55:13.203Z,15.35
2022-09-22T17:57:45.740Z,19.42
2022-09-22T18:00:21.293Z,13.77
2022-09-22T18:02:50.224Z,9.48
2022-09-22T18:05:20.880Z,9.50
2022-09-22T18:07:51.661Z,13.52
2022-09-22T18:10:21.053Z,8.70
2022-09-22T18:12:47.923Z,8.82
2022-09-22T18:15:15.245Z,7.75
2022-09-22T18:17:43.264Z,12.57
2022-09-22T18:20:11.795Z,11.48
2022-09-22T18:22:40.085Z,8.73
2022-09-22T18:25:11.190Z,14.68
2022-09-22T18:27:38.527Z,11.93
2022-09-22T18:30:06.479Z,11.27
2022-09-22T18:32:35.454Z,11.07
2022-09-22T18:35:02.664Z,8.27
2022-09-22T18:37:29.620Z,9.32
2022-09-22T18:39:56.394Z,9.35
2022-09-22T18:42:24.916Z,9.13
2022-09-22T18:44:52.549Z,8.07
2022-09-22T18:47:21.357Z,6.62
2022-09-22T18:49:50.420Z,8.63
2022-09-22T18:52:24.186Z,15.48
2022-09-22T18:54:54.492Z,10.30
2022-09-22T18:57:24.802Z,6.70
2022-09-22T18:59:52.072Z,6.25
2022-09-22T19:02:23.182Z,5.97
2022-09-22T19:04:51.852Z,7.97
2022-09-22T19:07:41.937Z,6.18
2022-09-22T19:10:11.638Z,5.07
2022-09-22T19:12:40.144Z,3.00
2022-09-22T19:15:08.858Z,6.82
2022-09-22T19:17:35.679Z,6.60
2022-09-22T19:20:02.478Z,8.65
2022-09-22T19:22:29.686Z,5.57
2022-09-22T19:24:56.971Z,7.45
2022-09-22T19:27:24.981Z,4.72
2022-09-22T19:29:52.824Z,4.70
2022-09-22T19:32:19.656Z,4.35
2022-09-22T19:34:46.752Z,6.18
2022-09-22T19:37:13.573Z,5.60
2022-09-22T19:39:40.352Z,5.25
2022-09-22T19:42:07.390Z,5.82
2022-09-22T19:44:34.550Z,7.95
2022-09-22T19:47:01.772Z,4.87
2022-09-22T19:49:29.794Z,6.37
2022-09-22T19:51:56.513Z,7.68
2022-09-22T19:54:23.520Z,9.43
2022-09-22T19:56:50.456Z,8.95
2022-09-22T19:59:19.776Z,7.93
2022-09-22T20:01:48.177Z,7.32
2022-09-22T20:04:20.246Z,7.65
2022-09-22T20:06:50.488Z,6.50
2022-09-22T20:09:17.446Z,6.20
2022-09-22T20:11:49.824Z,5.30
2022-09-22T20:14:23.812Z,6.87
2022-09-22T20:17:00.066Z,4.35
2022-09-22T20:19:28.066Z,7.60
2022-09-22T20:22:18.715Z,5.60
2022-09-22T20:24:57.600Z,3.87
2022-09-22T20:27:29.937Z,6.90
2022-09-22T20:29:57.669Z,4.03
2022-09-22T20:32:26.434Z,3.87
2022-09-22T20:34:56.235Z,8.55
2022-09-22T20:37:24.699Z,3.47
2022-09-22T20:39:51.907Z,3.92
2022-09-22T20:42:18.674Z,3.58
2022-09-22T20:44:47.081Z,3.90
2022-09-22T20:47:18.897Z,4.75
2022-09-22T20:49:51.355Z,5.07
2022-09-22T20:52:22.855Z,8.07
2022-09-22T20:54:49.587Z,6.28
2022-09-22T20:57:16.987Z,6.22
2022-09-22T20:59:45.847Z,5.53
2022-09-22T21:02:14.402Z,5.35
2022-09-22T21:04:41.393Z,5.37
2022-09-22T21:07:08.688Z,5.65
2022-09-22T21:09:54.226Z,5.10
2022-09-22T21:12:21.277Z,4.40
2022-09-22T21:14:48.949Z,4.70
2022-09-22T21:17:15.732Z,5.15
2022-09-22T21:19:43.472Z,5.78
2022-09-22T21:22:10.527Z,6.68
2022-09-22T21:24:37.366Z,4.70
2022-09-22T21:27:04.770Z,5.07
2022-09-22T21:29:31.680Z,7.87
2022-09-22T21:31:58.534Z,5.35
2022-09-22T21:34:25.360Z,5.28
2022-09-22T21:36:52.566Z,6.82
2022-09-22T21:39:19.360Z,5.80
2022-09-22T21:41:46.142Z,6.65
2022-09-22T21:44:13.038Z,4.93
2022-09-22T21:46:42.759Z,5.43
2022-09-22T21:49:10.391Z,6.90
2022-09-22T21:51:42.967Z,5.12
2022-09-22T21:54:16.736Z,7.20
2022-09-22T21:56:43.526Z,6.78
2022-09-22T21:59:12.381Z,8.40
2022-09-22T22:01:42.193Z,5.25
2022-09-22T22:04:10.380Z,5.90
2022-09-22T22:06:41.025Z,9.43
2022-09-22T22:09:14.665Z,11.57
2022-09-22T22:11:49.270Z,13.27
2022-09-22T22:14:19.512Z,21.60
2022-09-22T22:16:48.938Z,14.50
2022-09-22T22:19:18.263Z,13.10
2022-09-22T22:21:45.164Z,13.02
2022-09-22T22:24:17.966Z,9.30
2022-09-22T22:26:52.014Z,7.03
2022-09-22T22:29:19.955Z,6.93
2022-09-22T22:31:49.193Z,6.78
2022-09-22T22:34:18.719Z,8.38
2022-09-22T22:36:45.976Z,6.93
2022-09-22T22:39:13.517Z,6.62
2022-09-22T22:41:40.959Z,8.38
2022-09-22T22:44:08.599Z,6.53
2022-09-22T22:46:35.860Z,8.98
2022-09-22T22:49:03.149Z,11.60
2022-09-22T22:51:30.483Z,5.95
2022-09-22T22:53:57.227Z,7.50
2022-09-22T22:56:26.632Z,7.65
2022-09-22T22:58:53.902Z,9.05
2022-09-22T23:01:26.473Z,6.40
2022-09-22T23:03:55.984Z,8.00
2022-09-22T23:06:25.563Z,8.88
2022-09-22T23:08:53.485Z,5.57
2022-09-22T23:11:23.485Z,5.55
2022-09-22T23:13:53.191Z,6.50
2022-09-22T23:16:24.097Z,6.65
2022-09-22T23:18:53.017Z,7.07
2022-09-22T23:21:21.413Z,6.00
2022-09-22T23:23:49.336Z,7.30
2022-09-22T23:26:17.814Z,6.93
2022-09-22T23:28:45.252Z,6.70
2022-09-22T23:31:18.294Z,5.50
2022-09-22T23:33:47.283Z,7.07
2022-09-22T23:36:21.547Z,6.00
2022-09-22T23:38:48.748Z,10.10
2022-09-22T23:41:15.563Z,7.95
2022-09-22T23:43:42.322Z,9.57
2022-09-22T23:46:09.247Z,10.27
2022-09-22T23:48:36.934Z,7.53
2022-09-22T23:51:05.945Z,6.43
2022-09-22T23:53:37.218Z,5.65
2022-09-22T23:56:05.783Z,6.00
2022-09-22T23:58:33.295Z,6.10
